sensor_id;sensor_type;location;lat;lon;timestamp;temperature;humidity
67163;DHT22;54092;53.088;8.850;2023-02-11T00:00:07;6.90;99.90
67163;DHT22;54092;53.088;8.850;2023-02-11T00:02:32;7.00;99.90
67163;DHT22;54092;53.088;8.850;2023-02-11T00:04:58;7.00;99.90
67163;DHT22;54092;53.088;8.850;2023-02-11T00:07:28;6.90;99.90
67163;DHT22;54092;53.088;8.850;2023-02-11T00:09:54;6.90;99.90
67163;DHT22;54092;53.088;8.850;2023-02-11T00:12:19;7.00;99.90
67163;DHT22;54092;53.088;8.850;2023-02-11T00:14:45;7.00;99.90
67163;DHT22;54092;53.088;8.850;2023-02-11T00:17:10;7.00;99.90
67163;DHT22;54092;53.088;8.850;2023-02-11T00:19:36;6.90;99.90
67163;DHT22;54092;53.088;8.850;2023-02-11T00:22:01;7.00;99.90
67163;DHT22;54092;53.088;8.850;2023-02-11T00:24:27;7.00;99.90
67163;DHT22;54092;53.088;8.850;2023-02-11T00:26:54;7.00;99.90
67163;DHT22;54092;53.088;8.850;2023-02-11T00:29:19;7.00;99.90
67163;DHT22;54092;53.088;8.850;2023-02-11T00:31:45;7.00;99.90
67163;DHT22;54092;53.088;8.850;2023-02-11T00:34:10;7.00;99.90
67163;DHT22;54092;53.088;8.850;2023-02-11T00:36:36;7.00;99.90
67163;DHT22;54092;53.088;8.850;2023-02-11T00:39:02;7.00;99.90
67163;DHT22;54092;53.088;8.850;2023-02-11T00:41:27;7.00;99.90
67163;DHT22;54092;53.088;8.850;2023-02-11T00:43:53;7.10;99.90
67163;DHT22;54092;53.088;8.850;2023-02-11T00:46:19;7.00;99.90
67163;DHT22;54092;53.088;8.850;2023-02-11T00:48:44;7.00;99.90
67163;DHT22;54092;53.088;8.850;2023-02-11T00:51:11;7.10;99.90
67163;DHT22;54092;53.088;8.850;2023-02-11T00:53:37;7.00;99.90
67163;DHT22;54092;53.088;8.850;2023-02-11T00:56:03;7.10;99.90
67163;DHT22;54092;53.088;8.850;2023-02-11T00:58:29;7.10;99.90
67163;DHT22;54092;53.088;8.850;2023-02-11T01:00:55;7.10;99.90
67163;DHT22;54092;53.088;8.850;2023-02-11T01:03:21;7.10;99.90
67163;DHT22;54092;53.088;8.850;2023-02-11T01:05:46;7.10;99.90
67163;DHT22;54092;53.088;8.850;2023-02-11T01:08:12;7.10;99.90
67163;DHT22;54092;53.088;8.850;2023-02-11T01:10:37;7.10;99.90
67163;DHT22;54092;53.088;8.850;2023-02-11T01:13:03;7.10;99.90
67163;DHT22;54092;53.088;8.850;2023-02-11T01:15:28;7.10;99.90
67163;DHT22;54092;53.088;8.850;2023-02-11T01:17:54;7.10;99.90
67163;DHT22;54092;53.088;8.850;2023-02-11T01:20:23;7.10;99.90
67163;DHT22;54092;53.088;8.850;2023-02-11T01:22:49;7.10;99.90
67163;DHT22;54092;53.088;8.850;2023-02-11T01:25:14;7.10;99.90
67163;DHT22;54092;53.088;8.850;2023-02-11T01:27:40;7.10;99.90
67163;DHT22;54092;53.088;8.850;2023-02-11T01:30:10;7.10;99.90
67163;DHT22;54092;53.088;8.850;2023-02-11T01:32:36;7.10;99.90
67163;DHT22;54092;53.088;8.850;2023-02-11T01:35:02;7.10;99.90
67163;DHT22;54092;53.088;8.850;2023-02-11T01:37:27;7.10;99.90
67163;DHT22;54092;53.088;8.850;2023-02-11T01:39:53;7.10;99.90
67163;DHT22;54092;53.088;8.850;2023-02-11T01:42:20;7.10;99.90
67163;DHT22;54092;53.088;8.850;2023-02-11T01:44:50;7.10;99.90
67163;DHT22;54092;53.088;8.850;2023-02-11T01:47:17;7.10;99.90
67163;DHT22;54092;53.088;8.850;2023-02-11T01:49:49;7.10;99.90
67163;DHT22;54092;53.088;8.850;2023-02-11T01:52:25;7.10;99.90
67163;DHT22;54092;53.088;8.850;2023-02-11T01:54:59;7.20;99.90
67163;DHT22;54092;53.088;8.850;2023-02-11T01:57:46;7.20;99.90
67163;DHT22;54092;53.088;8.850;2023-02-11T02:00:21;7.20;99.90
67163;DHT22;54092;53.088;8.850;2023-02-11T02:03:03;7.20;99.90
67163;DHT22;54092;53.088;8.850;2023-02-11T02:05:42;7.20;99.90
67163;DHT22;54092;53.088;8.850;2023-02-11T02:08:18;7.20;99.90
67163;DHT22;54092;53.088;8.850;2023-02-11T02:10:48;7.20;99.90
67163;DHT22;54092;53.088;8.850;2023-02-11T02:13:14;7.20;99.90
67163;DHT22;54092;53.088;8.850;2023-02-11T02:15:52;7.20;99.90
67163;DHT22;54092;53.088;8.850;2023-02-11T02:18:25;7.20;99.90
67163;DHT22;54092;53.088;8.850;2023-02-11T02:21:20;7.20;99.90
67163;DHT22;54092;53.088;8.850;2023-02-11T02:32:28;7.20;99.90
67163;DHT22;54092;53.088;8.850;2023-02-11T02:37:33;7.30;99.90
67163;DHT22;54092;53.088;8.850;2023-02-11T02:40:05;7.30;99.90
67163;DHT22;54092;53.088;8.850;2023-02-11T02:42:33;7.30;99.90
67163;DHT22;54092;53.088;8.850;2023-02-11T02:44:59;7.30;99.90
67163;DHT22;54092;53.088;8.850;2023-02-11T02:47:25;7.30;99.90
67163;DHT22;54092;53.088;8.850;2023-02-11T02:49:50;7.30;99.90
67163;DHT22;54092;53.088;8.850;2023-02-11T02:58:35;7.30;99.90
67163;DHT22;54092;53.088;8.850;2023-02-11T03:01:25;7.30;99.90
67163;DHT22;54092;53.088;8.850;2023-02-11T03:06:39;7.30;99.90
67163;DHT22;54092;53.088;8.850;2023-02-11T03:09:57;7.30;99.90
67163;DHT22;54092;53.088;8.850;2023-02-11T03:12:03;7.30;99.90
67163;DHT22;54092;53.088;8.850;2023-02-11T03:14:31;7.30;99.90
67163;DHT22;54092;53.088;8.850;2023-02-11T03:17:00;7.30;99.90
67163;DHT22;54092;53.088;8.850;2023-02-11T03:19:38;7.30;99.90
67163;DHT22;54092;53.088;8.850;2023-02-11T03:22:10;7.30;99.90
67163;DHT22;54092;53.088;8.850;2023-02-11T03:24:37;7.30;99.90
67163;DHT22;54092;53.088;8.850;2023-02-11T03:27:11;7.30;99.90
67163;DHT22;54092;53.088;8.850;2023-02-11T03:29:43;7.30;99.90
67163;DHT22;54092;53.088;8.850;2023-02-11T03:35:06;7.30;99.90
67163;DHT22;54092;53.088;8.850;2023-02-11T03:37:50;7.30;99.90
67163;DHT22;54092;53.088;8.850;2023-02-11T03:40:24;7.30;99.90
67163;DHT22;54092;53.088;8.850;2023-02-11T03:42:59;7.40;99.90
67163;DHT22;54092;53.088;8.850;2023-02-11T03:45:26;7.40;99.90
67163;DHT22;54092;53.088;8.850;2023-02-11T03:47:59;7.40;99.90
67163;DHT22;54092;53.088;8.850;2023-02-11T03:50:27;7.40;99.90
67163;DHT22;54092;53.088;8.850;2023-02-11T03:52:54;7.40;99.90
67163;DHT22;54092;53.088;8.850;2023-02-11T03:55:22;7.40;99.90
67163;DHT22;54092;53.088;8.850;2023-02-11T03:57:50;7.40;99.90
67163;DHT22;54092;53.088;8.850;2023-02-11T04:00:16;7.40;99.90
67163;DHT22;54092;53.088;8.850;2023-02-11T04:02:42;7.40;99.90
67163;DHT22;54092;53.088;8.850;2023-02-11T04:05:13;7.40;99.90
67163;DHT22;54092;53.088;8.850;2023-02-11T04:07:39;7.40;99.90
67163;DHT22;54092;53.088;8.850;2023-02-11T04:10:05;7.50;99.90
67163;DHT22;54092;53.088;8.850;2023-02-11T04:12:31;7.50;99.90
67163;DHT22;54092;53.088;8.850;2023-02-11T04:14:56;7.50;99.90
67163;DHT22;54092;53.088;8.850;2023-02-11T04:17:22;7.50;99.90
67163;DHT22;54092;53.088;8.850;2023-02-11T04:19:47;7.50;99.90
67163;DHT22;54092;53.088;8.850;2023-02-11T04:22:13;7.50;99.90
67163;DHT22;54092;53.088;8.850;2023-02-11T04:24:38;7.50;99.90
67163;DHT22;54092;53.088;8.850;2023-02-11T04:27:04;7.50;99.90
67163;DHT22;54092;53.088;8.850;2023-02-11T04:29:30;7.50;99.90
67163;DHT22;54092;53.088;8.850;2023-02-11T04:31:56;7.50;99.90
67163;DHT22;54092;53.088;8.850;2023-02-11T04:34:22;7.60;99.90
67163;DHT22;54092;53.088;8.850;2023-02-11T04:36:49;7.60;99.90
67163;DHT22;54092;53.088;8.850;2023-02-11T04:39:14;7.50;99.90
67163;DHT22;54092;53.088;8.850;2023-02-11T04:41:40;7.50;99.90
67163;DHT22;54092;53.088;8.850;2023-02-11T04:44:05;7.50;99.90
67163;DHT22;54092;53.088;8.850;2023-02-11T04:46:31;7.60;99.90
67163;DHT22;54092;53.088;8.850;2023-02-11T04:48:57;7.60;99.90
67163;DHT22;54092;53.088;8.850;2023-02-11T04:51:22;7.60;99.90
67163;DHT22;54092;53.088;8.850;2023-02-11T04:53:48;7.60;99.90
67163;DHT22;54092;53.088;8.850;2023-02-11T04:56:13;7.60;99.90
67163;DHT22;54092;53.088;8.850;2023-02-11T04:58:39;7.60;99.90
67163;DHT22;54092;53.088;8.850;2023-02-11T05:01:09;7.60;99.90
67163;DHT22;54092;53.088;8.850;2023-02-11T05:03:36;7.60;99.90
67163;DHT22;54092;53.088;8.850;2023-02-11T05:06:02;7.60;99.90
67163;DHT22;54092;53.088;8.850;2023-02-11T05:08:28;7.60;99.90
67163;DHT22;54092;53.088;8.850;2023-02-11T05:10:53;7.60;99.90
67163;DHT22;54092;53.088;8.850;2023-02-11T05:13:19;7.60;99.90
67163;DHT22;54092;53.088;8.850;2023-02-11T05:15:44;7.70;99.90
67163;DHT22;54092;53.088;8.850;2023-02-11T05:18:10;7.60;99.90
67163;DHT22;54092;53.088;8.850;2023-02-11T05:20:38;7.70;99.90
67163;DHT22;54092;53.088;8.850;2023-02-11T05:23:04;7.70;99.90
67163;DHT22;54092;53.088;8.850;2023-02-11T05:25:29;7.70;99.90
67163;DHT22;54092;53.088;8.850;2023-02-11T05:27:55;7.70;99.90
67163;DHT22;54092;53.088;8.850;2023-02-11T05:30:20;7.60;99.90
67163;DHT22;54092;53.088;8.850;2023-02-11T05:32:46;7.60;99.90
67163;DHT22;54092;53.088;8.850;2023-02-11T05:35:11;7.60;99.90
67163;DHT22;54092;53.088;8.850;2023-02-11T05:37:38;7.60;99.90
67163;DHT22;54092;53.088;8.850;2023-02-11T05:40:04;7.60;99.90
67163;DHT22;54092;53.088;8.850;2023-02-11T05:42:30;7.60;99.90
67163;DHT22;54092;53.088;8.850;2023-02-11T05:44:55;7.60;99.90
67163;DHT22;54092;53.088;8.850;2023-02-11T05:47:21;7.60;99.90
67163;DHT22;54092;53.088;8.850;2023-02-11T05:49:46;7.60;99.90
67163;DHT22;54092;53.088;8.850;2023-02-11T05:52:12;7.60;99.90
67163;DHT22;54092;53.088;8.850;2023-02-11T05:54:37;7.60;99.90
67163;DHT22;54092;53.088;8.850;2023-02-11T05:57:03;7.60;99.90
67163;DHT22;54092;53.088;8.850;2023-02-11T05:59:28;7.60;99.90
67163;DHT22;54092;53.088;8.850;2023-02-11T06:01:54;7.60;99.90
67163;DHT22;54092;53.088;8.850;2023-02-11T06:04:19;7.50;99.90
67163;DHT22;54092;53.088;8.850;2023-02-11T06:06:45;7.60;99.90
67163;DHT22;54092;53.088;8.850;2023-02-11T06:09:10;7.60;99.90
67163;DHT22;54092;53.088;8.850;2023-02-11T06:11:36;7.50;99.90
67163;DHT22;54092;53.088;8.850;2023-02-11T06:14:02;7.50;99.90
67163;DHT22;54092;53.088;8.850;2023-02-11T06:16:27;7.50;99.90
67163;DHT22;54092;53.088;8.850;2023-02-11T06:18:53;7.50;99.90
67163;DHT22;54092;53.088;8.850;2023-02-11T06:21:18;7.50;99.90
67163;DHT22;54092;53.088;8.850;2023-02-11T06:23:44;7.50;99.90
67163;DHT22;54092;53.088;8.850;2023-02-11T06:26:18;7.50;99.90
67163;DHT22;54092;53.088;8.850;2023-02-11T06:28:44;7.50;99.90
67163;DHT22;54092;53.088;8.850;2023-02-11T06:31:10;7.50;99.90
67163;DHT22;54092;53.088;8.850;2023-02-11T06:33:36;7.50;99.90
67163;DHT22;54092;53.088;8.850;2023-02-11T06:36:04;7.50;99.90
67163;DHT22;54092;53.088;8.850;2023-02-11T06:38:33;7.50;99.90
67163;DHT22;54092;53.088;8.850;2023-02-11T06:40:59;7.50;99.90
67163;DHT22;54092;53.088;8.850;2023-02-11T06:43:24;7.50;99.90
67163;DHT22;54092;53.088;8.850;2023-02-11T06:45:53;7.50;99.90
67163;DHT22;54092;53.088;8.850;2023-02-11T06:48:19;7.50;99.90
67163;DHT22;54092;53.088;8.850;2023-02-11T06:50:45;7.50;99.90
67163;DHT22;54092;53.088;8.850;2023-02-11T06:53:11;7.50;99.90
67163;DHT22;54092;53.088;8.850;2023-02-11T06:55:36;7.50;99.90
67163;DHT22;54092;53.088;8.850;2023-02-11T06:58:01;7.50;99.90
67163;DHT22;54092;53.088;8.850;2023-02-11T07:00:27;7.50;99.90
67163;DHT22;54092;53.088;8.850;2023-02-11T07:02:54;7.50;99.90
67163;DHT22;54092;53.088;8.850;2023-02-11T07:05:20;7.50;99.90
67163;DHT22;54092;53.088;8.850;2023-02-11T07:07:46;7.50;99.90
67163;DHT22;54092;53.088;8.850;2023-02-11T07:10:12;7.50;99.90
67163;DHT22;54092;53.088;8.850;2023-02-11T07:12:38;7.50;99.90
67163;DHT22;54092;53.088;8.850;2023-02-11T07:15:04;7.60;99.90
67163;DHT22;54092;53.088;8.850;2023-02-11T07:17:30;7.60;99.90
67163;DHT22;54092;53.088;8.850;2023-02-11T07:19:55;7.60;99.90
67163;DHT22;54092;53.088;8.850;2023-02-11T07:22:21;7.60;99.90
67163;DHT22;54092;53.088;8.850;2023-02-11T07:24:46;7.70;99.90
67163;DHT22;54092;53.088;8.850;2023-02-11T07:27:12;7.70;99.90
67163;DHT22;54092;53.088;8.850;2023-02-11T07:29:38;7.60;99.90
67163;DHT22;54092;53.088;8.850;2023-02-11T07:32:04;7.70;99.90
67163;DHT22;54092;53.088;8.850;2023-02-11T07:34:30;7.70;99.90
67163;DHT22;54092;53.088;8.850;2023-02-11T07:36:56;7.80;99.90
67163;DHT22;54092;53.088;8.850;2023-02-11T07:39:21;7.80;99.90
67163;DHT22;54092;53.088;8.850;2023-02-11T07:41:47;7.80;99.90
67163;DHT22;54092;53.088;8.850;2023-02-11T07:44:14;7.80;99.90
67163;DHT22;54092;53.088;8.850;2023-02-11T07:46:39;7.90;99.90
67163;DHT22;54092;53.088;8.850;2023-02-11T07:49:08;7.90;99.90
67163;DHT22;54092;53.088;8.850;2023-02-11T07:51:34;7.90;99.90
67163;DHT22;54092;53.088;8.850;2023-02-11T07:54:00;7.90;99.90
67163;DHT22;54092;53.088;8.850;2023-02-11T07:56:26;7.90;99.90
67163;DHT22;54092;53.088;8.850;2023-02-11T07:58:53;7.90;99.90
67163;DHT22;54092;53.088;8.850;2023-02-11T08:01:23;7.90;99.90
67163;DHT22;54092;53.088;8.850;2023-02-11T08:03:56;7.90;99.90
67163;DHT22;54092;53.088;8.850;2023-02-11T08:06:24;8.00;99.90
67163;DHT22;54092;53.088;8.850;2023-02-11T08:08:50;7.90;99.90
67163;DHT22;54092;53.088;8.850;2023-02-11T08:13:43;8.00;99.90
67163;DHT22;54092;53.088;8.850;2023-02-11T08:16:16;8.00;99.90
67163;DHT22;54092;53.088;8.850;2023-02-11T08:18:42;8.00;99.90
67163;DHT22;54092;53.088;8.850;2023-02-11T08:21:09;8.00;99.90
67163;DHT22;54092;53.088;8.850;2023-02-11T08:23:39;8.00;99.90
67163;DHT22;54092;53.088;8.850;2023-02-11T08:26:08;8.00;99.90
67163;DHT22;54092;53.088;8.850;2023-02-11T08:28:36;8.00;99.90
67163;DHT22;54092;53.088;8.850;2023-02-11T08:31:06;8.00;99.90
67163;DHT22;54092;53.088;8.850;2023-02-11T08:33:32;8.00;99.90
67163;DHT22;54092;53.088;8.850;2023-02-11T08:35:58;8.00;99.90
67163;DHT22;54092;53.088;8.850;2023-02-11T08:38:24;8.10;99.90
67163;DHT22;54092;53.088;8.850;2023-02-11T08:40:50;8.10;99.90
67163;DHT22;54092;53.088;8.850;2023-02-11T08:43:15;8.10;99.90
67163;DHT22;54092;53.088;8.850;2023-02-11T08:45:41;8.20;99.90
67163;DHT22;54092;53.088;8.850;2023-02-11T08:48:06;8.20;99.90
67163;DHT22;54092;53.088;8.850;2023-02-11T08:50:32;8.10;99.90
67163;DHT22;54092;53.088;8.850;2023-02-11T08:52:57;8.20;99.90
67163;DHT22;54092;53.088;8.850;2023-02-11T08:55:23;8.20;99.90
67163;DHT22;54092;53.088;8.850;2023-02-11T08:57:48;8.30;99.90
67163;DHT22;54092;53.088;8.850;2023-02-11T09:00:14;8.30;99.90
67163;DHT22;54092;53.088;8.850;2023-02-11T09:02:40;8.30;99.90
67163;DHT22;54092;53.088;8.850;2023-02-11T09:05:06;8.20;99.90
67163;DHT22;54092;53.088;8.850;2023-02-11T09:07:32;8.30;99.90
67163;DHT22;54092;53.088;8.850;2023-02-11T09:09:57;8.30;99.90
67163;DHT22;54092;53.088;8.850;2023-02-11T09:12:23;8.30;99.90
67163;DHT22;54092;53.088;8.850;2023-02-11T09:14:48;8.30;99.90
67163;DHT22;54092;53.088;8.850;2023-02-11T09:17:14;8.30;99.90
67163;DHT22;54092;53.088;8.850;2023-02-11T09:19:39;8.30;99.90
67163;DHT22;54092;53.088;8.850;2023-02-11T09:22:05;8.30;99.90
67163;DHT22;54092;53.088;8.850;2023-02-11T09:24:30;8.30;99.90
67163;DHT22;54092;53.088;8.850;2023-02-11T09:26:56;8.30;99.90
67163;DHT22;54092;53.088;8.850;2023-02-11T09:29:21;8.30;99.90
67163;DHT22;54092;53.088;8.850;2023-02-11T09:31:47;8.30;99.90
67163;DHT22;54092;53.088;8.850;2023-02-11T09:34:12;8.30;99.90
67163;DHT22;54092;53.088;8.850;2023-02-11T09:36:39;8.20;99.90
67163;DHT22;54092;53.088;8.850;2023-02-11T09:39:10;8.30;99.90
67163;DHT22;54092;53.088;8.850;2023-02-11T09:44:27;8.30;99.90
67163;DHT22;54092;53.088;8.850;2023-02-11T09:47:24;8.30;99.90
67163;DHT22;54092;53.088;8.850;2023-02-11T09:50:04;8.30;99.90
67163;DHT22;54092;53.088;8.850;2023-02-11T09:55:01;8.30;99.90
67163;DHT22;54092;53.088;8.850;2023-02-11T09:57:35;8.40;99.90
67163;DHT22;54092;53.088;8.850;2023-02-11T10:00:11;8.40;99.90
67163;DHT22;54092;53.088;8.850;2023-02-11T10:05:46;8.40;99.90
67163;DHT22;54092;53.088;8.850;2023-02-11T10:09:01;8.40;99.90
67163;DHT22;54092;53.088;8.850;2023-02-11T10:12:06;8.40;99.90
67163;DHT22;54092;53.088;8.850;2023-02-11T10:20:35;8.50;99.90
67163;DHT22;54092;53.088;8.850;2023-02-11T10:23:14;8.60;99.90
67163;DHT22;54092;53.088;8.850;2023-02-11T10:25:47;8.70;99.90
67163;DHT22;54092;53.088;8.850;2023-02-11T10:28:16;8.70;99.90
67163;DHT22;54092;53.088;8.850;2023-02-11T10:31:06;8.70;99.90
67163;DHT22;54092;53.088;8.850;2023-02-11T10:33:38;8.70;99.90
67163;DHT22;54092;53.088;8.850;2023-02-11T10:36:07;8.70;99.90
67163;DHT22;54092;53.088;8.850;2023-02-11T10:38:35;8.70;99.90
67163;DHT22;54092;53.088;8.850;2023-02-11T10:41:01;8.80;99.90
67163;DHT22;54092;53.088;8.850;2023-02-11T10:43:27;8.80;99.90
67163;DHT22;54092;53.088;8.850;2023-02-11T10:45:55;8.80;99.90
67163;DHT22;54092;53.088;8.850;2023-02-11T10:48:42;8.60;99.90
67163;DHT22;54092;53.088;8.850;2023-02-11T10:53:37;8.60;99.90
67163;DHT22;54092;53.088;8.850;2023-02-11T10:56:06;8.60;99.90
67163;DHT22;54092;53.088;8.850;2023-02-11T10:58:46;8.70;99.90
67163;DHT22;54092;53.088;8.850;2023-02-11T11:01:18;8.80;99.90
67163;DHT22;54092;53.088;8.850;2023-02-11T11:03:49;8.80;99.90
67163;DHT22;54092;53.088;8.850;2023-02-11T11:06:15;8.80;99.90
67163;DHT22;54092;53.088;8.850;2023-02-11T11:08:53;8.80;99.90
67163;DHT22;54092;53.088;8.850;2023-02-11T11:11:21;8.90;99.90
67163;DHT22;54092;53.088;8.850;2023-02-11T11:13:57;8.90;99.90
67163;DHT22;54092;53.088;8.850;2023-02-11T11:16:29;9.00;99.90
67163;DHT22;54092;53.088;8.850;2023-02-11T11:21:42;9.10;99.90
67163;DHT22;54092;53.088;8.850;2023-02-11T11:24:24;9.00;99.90
67163;DHT22;54092;53.088;8.850;2023-02-11T11:26:57;9.00;99.90
67163;DHT22;54092;53.088;8.850;2023-02-11T11:29:42;9.00;99.90
67163;DHT22;54092;53.088;8.850;2023-02-11T11:32:23;9.00;99.90
67163;DHT22;54092;53.088;8.850;2023-02-11T11:34:54;9.00;99.90
67163;DHT22;54092;53.088;8.850;2023-02-11T11:37:26;8.90;99.90
67163;DHT22;54092;53.088;8.850;2023-02-11T11:40:09;8.80;99.90
67163;DHT22;54092;53.088;8.850;2023-02-11T11:42:46;8.90;99.90
67163;DHT22;54092;53.088;8.850;2023-02-11T11:45:26;8.80;99.90
67163;DHT22;54092;53.088;8.850;2023-02-11T11:47:55;8.90;99.90
67163;DHT22;54092;53.088;8.850;2023-02-11T11:50:44;8.90;99.90
67163;DHT22;54092;53.088;8.850;2023-02-11T11:53:34;8.90;99.90
67163;DHT22;54092;53.088;8.850;2023-02-11T11:56:15;8.90;99.90
67163;DHT22;54092;53.088;8.850;2023-02-11T11:58:41;8.90;99.90
67163;DHT22;54092;53.088;8.850;2023-02-11T12:09:55;9.00;99.90
67163;DHT22;54092;53.088;8.850;2023-02-11T12:15:38;9.00;99.90
67163;DHT22;54092;53.088;8.850;2023-02-11T12:22:06;9.10;99.90
67163;DHT22;54092;53.088;8.850;2023-02-11T12:30:33;9.30;99.90
67163;DHT22;54092;53.088;8.850;2023-02-11T12:41:40;9.50;99.90
67163;DHT22;54092;53.088;8.850;2023-02-11T12:44:53;9.60;99.90
67163;DHT22;54092;53.088;8.850;2023-02-11T12:47:36;9.50;99.90
67163;DHT22;54092;53.088;8.850;2023-02-11T12:55:40;9.60;99.90
67163;DHT22;54092;53.088;8.850;2023-02-11T12:58:13;9.70;99.90
67163;DHT22;54092;53.088;8.850;2023-02-11T13:01:02;9.70;99.90
67163;DHT22;54092;53.088;8.850;2023-02-11T13:03:36;9.80;99.90
67163;DHT22;54092;53.088;8.850;2023-02-11T13:06:10;9.80;99.90
67163;DHT22;54092;53.088;8.850;2023-02-11T13:09:02;9.80;99.90
67163;DHT22;54092;53.088;8.850;2023-02-11T13:11:40;9.70;99.90
67163;DHT22;54092;53.088;8.850;2023-02-11T13:14:15;9.70;99.90
67163;DHT22;54092;53.088;8.850;2023-02-11T13:16:45;9.70;99.90
67163;DHT22;54092;53.088;8.850;2023-02-11T13:22:12;9.70;99.90
67163;DHT22;54092;53.088;8.850;2023-02-11T13:25:01;9.70;99.90
67163;DHT22;54092;53.088;8.850;2023-02-11T13:27:50;9.70;99.90
67163;DHT22;54092;53.088;8.850;2023-02-11T13:30:43;9.70;99.90
67163;DHT22;54092;53.088;8.850;2023-02-11T13:38:23;9.60;99.90
67163;DHT22;54092;53.088;8.850;2023-02-11T13:41:18;9.50;99.90
67163;DHT22;54092;53.088;8.850;2023-02-11T13:44:24;9.50;99.90
67163;DHT22;54092;53.088;8.850;2023-02-11T13:46:59;9.40;99.90
67163;DHT22;54092;53.088;8.850;2023-02-11T13:49:33;9.30;99.90
67163;DHT22;54092;53.088;8.850;2023-02-11T13:52:02;9.30;99.90
67163;DHT22;54092;53.088;8.850;2023-02-11T13:54:35;9.30;99.90
67163;DHT22;54092;53.088;8.850;2023-02-11T13:59:45;9.30;99.90
67163;DHT22;54092;53.088;8.850;2023-02-11T14:02:31;9.20;99.90
67163;DHT22;54092;53.088;8.850;2023-02-11T14:10:58;9.20;99.90
67163;DHT22;54092;53.088;8.850;2023-02-11T14:16:14;9.20;99.90
67163;DHT22;54092;53.088;8.850;2023-02-11T14:21:23;9.10;99.90
67163;DHT22;54092;53.088;8.850;2023-02-11T14:30:09;9.00;99.90
67163;DHT22;54092;53.088;8.850;2023-02-11T14:35:38;9.00;99.90
67163;DHT22;54092;53.088;8.850;2023-02-11T14:41:17;9.00;99.90
67163;DHT22;54092;53.088;8.850;2023-02-11T14:43:46;9.00;99.90
67163;DHT22;54092;53.088;8.850;2023-02-11T14:46:13;9.00;99.90
67163;DHT22;54092;53.088;8.850;2023-02-11T14:48:44;9.00;99.90
67163;DHT22;54092;53.088;8.850;2023-02-11T14:51:14;9.10;99.90
67163;DHT22;54092;53.088;8.850;2023-02-11T14:53:45;9.10;99.90
67163;DHT22;54092;53.088;8.850;2023-02-11T14:56:19;9.20;99.90
67163;DHT22;54092;53.088;8.850;2023-02-11T14:58:47;9.20;99.90
67163;DHT22;54092;53.088;8.850;2023-02-11T15:01:34;9.20;99.90
67163;DHT22;54092;53.088;8.850;2023-02-11T15:04:05;9.20;99.90
67163;DHT22;54092;53.088;8.850;2023-02-11T15:06:34;9.30;99.90
67163;DHT22;54092;53.088;8.850;2023-02-11T15:09:24;9.30;99.90
67163;DHT22;54092;53.088;8.850;2023-02-11T15:11:54;9.40;99.90
67163;DHT22;54092;53.088;8.850;2023-02-11T15:14:30;9.40;99.90
67163;DHT22;54092;53.088;8.850;2023-02-11T15:16:59;9.40;99.90
67163;DHT22;54092;53.088;8.850;2023-02-11T15:19:35;9.30;99.90
67163;DHT22;54092;53.088;8.850;2023-02-11T15:22:14;9.30;99.90
67163;DHT22;54092;53.088;8.850;2023-02-11T15:24:44;9.20;99.90
67163;DHT22;54092;53.088;8.850;2023-02-11T15:27:13;9.20;99.90
67163;DHT22;54092;53.088;8.850;2023-02-11T15:29:46;9.10;99.90
67163;DHT22;54092;53.088;8.850;2023-02-11T15:32:16;9.10;99.90
67163;DHT22;54092;53.088;8.850;2023-02-11T15:34:43;9.10;99.90
67163;DHT22;54092;53.088;8.850;2023-02-11T15:37:13;9.00;99.90
67163;DHT22;54092;53.088;8.850;2023-02-11T15:39:41;9.10;99.90
67163;DHT22;54092;53.088;8.850;2023-02-11T15:42:36;9.00;99.90
67163;DHT22;54092;53.088;8.850;2023-02-11T15:47:45;8.90;99.90
67163;DHT22;54092;53.088;8.850;2023-02-11T15:50:22;8.90;99.90
67163;DHT22;54092;53.088;8.850;2023-02-11T15:52:49;8.80;99.90
67163;DHT22;54092;53.088;8.850;2023-02-11T15:55:15;8.80;99.90
67163;DHT22;54092;53.088;8.850;2023-02-11T15:57:44;8.80;99.90
67163;DHT22;54092;53.088;8.850;2023-02-11T16:00:18;8.80;99.90
67163;DHT22;54092;53.088;8.850;2023-02-11T16:02:46;8.80;99.90
67163;DHT22;54092;53.088;8.850;2023-02-11T16:05:43;8.80;99.90
67163;DHT22;54092;53.088;8.850;2023-02-11T16:08:28;8.80;99.90
67163;DHT22;54092;53.088;8.850;2023-02-11T16:10:59;8.80;99.90
67163;DHT22;54092;53.088;8.850;2023-02-11T16:13:29;8.80;99.90
67163;DHT22;54092;53.088;8.850;2023-02-11T16:16:14;8.70;99.90
67163;DHT22;54092;53.088;8.850;2023-02-11T16:18:53;8.70;99.90
67163;DHT22;54092;53.088;8.850;2023-02-11T16:21:26;8.70;99.90
67163;DHT22;54092;53.088;8.850;2023-02-11T16:23:55;8.70;99.90
67163;DHT22;54092;53.088;8.850;2023-02-11T16:26:29;8.70;99.90
67163;DHT22;54092;53.088;8.850;2023-02-11T16:31:37;8.60;99.90
67163;DHT22;54092;53.088;8.850;2023-02-11T16:34:16;8.60;99.90
67163;DHT22;54092;53.088;8.850;2023-02-11T16:36:42;8.60;99.90
67163;DHT22;54092;53.088;8.850;2023-02-11T16:39:09;8.70;99.90
67163;DHT22;54092;53.088;8.850;2023-02-11T16:41:35;8.60;99.90
67163;DHT22;54092;53.088;8.850;2023-02-11T16:44:00;8.70;99.90
67163;DHT22;54092;53.088;8.850;2023-02-11T16:46:26;8.70;99.90
67163;DHT22;54092;53.088;8.850;2023-02-11T16:48:53;8.70;99.90
67163;DHT22;54092;53.088;8.850;2023-02-11T16:51:18;8.60;99.90
67163;DHT22;54092;53.088;8.850;2023-02-11T16:53:44;8.60;99.90
67163;DHT22;54092;53.088;8.850;2023-02-11T16:56:17;8.60;99.90
67163;DHT22;54092;53.088;8.850;2023-02-11T16:58:43;8.70;99.90
67163;DHT22;54092;53.088;8.850;2023-02-11T17:01:09;8.70;99.90
67163;DHT22;54092;53.088;8.850;2023-02-11T17:03:35;8.70;99.90
67163;DHT22;54092;53.088;8.850;2023-02-11T17:06:06;8.70;99.90
67163;DHT22;54092;53.088;8.850;2023-02-11T17:08:33;8.60;99.90
67163;DHT22;54092;53.088;8.850;2023-02-11T17:11:00;8.70;99.90
67163;DHT22;54092;53.088;8.850;2023-02-11T17:13:25;8.80;99.90
67163;DHT22;54092;53.088;8.850;2023-02-11T17:15:51;8.80;99.90
67163;DHT22;54092;53.088;8.850;2023-02-11T17:18:16;8.80;99.90
67163;DHT22;54092;53.088;8.850;2023-02-11T17:20:42;8.80;99.90
67163;DHT22;54092;53.088;8.850;2023-02-11T17:23:08;8.80;99.90
67163;DHT22;54092;53.088;8.850;2023-02-11T17:25:33;8.90;99.90
67163;DHT22;54092;53.088;8.850;2023-02-11T17:28:04;8.90;99.90
67163;DHT22;54092;53.088;8.850;2023-02-11T17:30:30;8.90;99.90
67163;DHT22;54092;53.088;8.850;2023-02-11T17:32:55;8.90;99.90
67163;DHT22;54092;53.088;8.850;2023-02-11T17:35:21;8.90;99.90
67163;DHT22;54092;53.088;8.850;2023-02-11T17:37:46;8.90;99.90
67163;DHT22;54092;53.088;8.850;2023-02-11T17:40:12;8.90;99.90
67163;DHT22;54092;53.088;8.850;2023-02-11T17:42:38;8.90;99.90
67163;DHT22;54092;53.088;8.850;2023-02-11T17:45:04;9.00;99.90
67163;DHT22;54092;53.088;8.850;2023-02-11T17:47:29;9.00;99.90
67163;DHT22;54092;53.088;8.850;2023-02-11T17:49:55;9.00;99.90
67163;DHT22;54092;53.088;8.850;2023-02-11T17:52:20;9.00;99.90
67163;DHT22;54092;53.088;8.850;2023-02-11T17:54:46;9.00;99.90
67163;DHT22;54092;53.088;8.850;2023-02-11T17:57:11;9.00;99.90
67163;DHT22;54092;53.088;8.850;2023-02-11T17:59:38;9.00;99.90
67163;DHT22;54092;53.088;8.850;2023-02-11T18:02:04;9.00;99.90